Time;durP1;ratioP1;P1;durP2;ratioP2;P2;SDS_P1;SDS_P2;PMS_P1;PMS_P2;Temp;Humidity;BMP_temperature;BMP_pressure;BME280_temperature;BME280_humidity;BME280_pressure;Samples;Min_cycle;Max_cycle;Signal;HPM_P1;HPM_P2
2023/08/28 00:01:37;;;;;;;1.53;1.40;;;;;;;-141.26;100.00;62741.75;5152640;27;20241;-81
2023/08/28 00:04:05;;;;;;;1.47;1.37;;;;;;;-141.26;100.00;62741.75;5149147;27;20224;-81
2023/08/28 00:06:32;;;;;;;1.23;1.13;;;;;;;-141.26;100.00;62741.75;5148167;27;20218;-82
2023/08/28 00:08:59;;;;;;;1.10;1.00;;;;;;;-141.26;100.00;62741.75;5157932;27;20234;-82
2023/08/28 00:11:25;;;;;;;2.90;1.27;;;;;;;-141.26;100.00;62741.75;5154262;27;20253;-79
2023/08/28 00:13:52;;;;;;;1.40;1.13;;;;;;;-141.26;100.00;62741.75;5167436;27;20219;-78
2023/08/28 00:16:20;;;;;;;2.13;1.20;;;;;;;-141.26;100.00;62741.75;5148965;27;20220;-78
2023/08/28 00:18:47;;;;;;;3.03;1.87;;;;;;;-141.26;100.00;62741.75;5167691;27;20218;-78
2023/08/28 00:21:14;;;;;;;1.50;1.33;;;;;;;-141.26;100.00;62741.75;5161773;27;20243;-78
2023/08/28 00:23:41;;;;;;;3.20;1.30;;;;;;;-141.26;100.00;62741.75;5169681;27;20287;-79
2023/08/28 00:26:08;;;;;;;3.47;1.60;;;;;;;-141.26;100.00;62741.75;5169529;27;20222;-79
2023/08/28 00:28:35;;;;;;;1.83;1.40;;;;;;;-141.26;100.00;62741.75;5169281;27;20287;-79
2023/08/28 00:31:04;;;;;;;2.30;1.30;;;;;;;-141.26;100.00;62741.75;5157911;27;20234;-79
2023/08/28 00:33:32;;;;;;;3.60;1.50;;;;;;;-141.26;100.00;62741.75;5148551;27;20223;-79
2023/08/28 00:35:59;;;;;;;1.53;1.40;;;;;;;-141.26;100.00;62741.75;5168868;27;20219;-79
2023/08/28 00:38:26;;;;;;;1.30;1.20;;;;;;;-141.26;100.00;62741.75;5169395;27;20215;-79
2023/08/28 00:40:53;;;;;;;1.80;1.37;;;;;;;-141.26;100.00;62741.75;5161897;27;20227;-78
2023/08/28 00:43:21;;;;;;;2.60;1.47;;;;;;;-141.26;100.00;62741.75;5148498;27;20223;-78
2023/08/28 00:45:49;;;;;;;1.80;1.30;;;;;;;-141.26;100.00;62741.75;5166497;27;20223;-78
2023/08/28 00:48:20;;;;;;;1.73;1.40;;;;;;;-141.26;100.00;62741.75;5186654;27;20305;-78
2023/08/28 00:50:50;;;;;;;1.10;1.10;;;;;;;-141.26;100.00;62741.75;5166156;27;20229;-78
2023/08/28 00:53:17;;;;;;;1.33;1.20;;;;;;;-141.26;100.00;62741.75;5148268;27;20211;-78
2023/08/28 00:55:45;;;;;;;2.03;1.30;;;;;;;-141.26;100.00;62741.75;5165438;27;20272;-78
2023/08/28 00:58:13;;;;;;;2.73;1.53;;;;;;;-141.26;100.00;62741.75;5169037;27;20211;-78
2023/08/28 01:00:41;;;;;;;1.70;1.30;;;;;;;-141.26;100.00;62741.75;5168911;27;20226;-78
2023/08/28 01:03:09;;;;;;;1.20;1.10;;;;;;;-141.26;100.00;62741.75;5148905;27;20281;-78
2023/08/28 01:05:45;;;;;;;3.43;1.40;;;;;;;-141.26;100.00;62741.75;5149441;27;20262;-78
2023/08/28 01:08:24;;;;;;;3.03;1.20;;;;;;;-141.26;100.00;62741.75;5147592;27;20239;-78
2023/08/28 01:10:55;;;;;;;1.37;1.27;;;;;;;-141.26;100.00;62741.75;5148060;27;20242;-78
2023/08/28 01:13:31;;;;;;;1.80;1.17;;;;;;;-141.26;100.00;62741.75;5166856;27;20237;-78
2023/08/28 01:15:59;;;;;;;1.23;1.00;;;;;;;-141.26;100.00;62741.75;5152332;27;20227;-80
2023/08/28 01:18:27;;;;;;;1.10;1.07;;;;;;;-141.26;100.00;62741.75;5168093;27;20282;-80
2023/08/28 01:20:55;;;;;;;1.37;1.00;;;;;;;-141.26;100.00;62741.75;5168656;27;20215;-80
2023/08/28 01:23:28;;;;;;;1.93;1.10;;;;;;;-141.26;100.00;62741.75;5168338;27;20225;-80
2023/08/28 01:25:59;;;;;;;2.57;1.37;;;;;;;-141.26;100.00;62741.75;5149638;27;20251;-80
2023/08/28 01:28:29;;;;;;;1.47;1.33;;;;;;;-141.26;100.00;62741.75;5147869;27;20241;-80
2023/08/28 01:30:56;;;;;;;2.43;1.30;;;;;;;-141.26;100.00;62741.75;5164594;27;20223;-80
2023/08/28 01:33:23;;;;;;;1.60;1.20;;;;;;;-141.26;100.00;62741.75;5168438;27;20215;-81
2023/08/28 01:35:59;;;;;;;1.83;1.13;;;;;;;-141.26;100.00;62741.75;5155804;27;20243;-81
2023/08/28 01:38:32;;;;;;;2.40;1.40;;;;;;;-141.26;100.00;62741.75;5147622;27;20219;-81
2023/08/28 01:41:04;;;;;;;1.80;1.27;;;;;;;-141.26;100.00;62741.75;5147756;27;20219;-81
2023/08/28 01:43:36;;;;;;;3.20;1.40;;;;;;;-141.26;100.00;62741.75;5147542;27;20207;-81
2023/08/28 01:46:04;;;;;;;1.20;1.10;;;;;;;-141.26;100.00;62741.75;5147194;27;20220;-79
2023/08/28 01:48:31;;;;;;;3.37;1.40;;;;;;;-141.26;100.00;62741.75;5147578;27;20272;-82
2023/08/28 01:50:58;;;;;;;1.53;1.43;;;;;;;-141.26;100.00;62741.75;5147490;27;20277;-82
2023/08/28 01:53:28;;;;;;;1.20;1.20;;;;;;;-141.26;100.00;62741.75;5147375;27;20219;-82
2023/08/28 01:56:18;;;;;;;1.80;1.30;;;;;;;-141.26;100.00;62741.75;5165988;27;20215;-82
2023/08/28 01:58:47;;;;;;;1.93;1.00;;;;;;;-141.26;100.00;62741.75;5136527;27;20227;-82
2023/08/28 02:01:14;;;;;;;1.40;1.30;;;;;;;-141.26;100.00;62741.75;5147095;27;20223;-81
2023/08/28 02:03:41;;;;;;;1.83;1.10;;;;;;;-141.26;100.00;62741.75;5147241;27;20227;-78
2023/08/28 02:06:08;;;;;;;1.60;1.37;;;;;;;-141.26;100.00;62741.75;5147222;27;20211;-78
2023/08/28 02:08:37;;;;;;;1.50;1.40;;;;;;;-141.26;100.00;62741.75;5146718;27;20322;-78
2023/08/28 02:11:04;;;;;;;2.60;1.50;;;;;;;-141.26;100.00;62741.75;5146940;27;20223;-78
2023/08/28 02:13:32;;;;;;;1.53;1.30;;;;;;;-141.26;100.00;62741.75;5165762;27;20218;-78
2023/08/28 02:16:00;;;;;;;2.63;1.60;;;;;;;-141.26;100.00;62741.75;5165397;27;20225;-78
2023/08/28 02:18:27;;;;;;;1.73;1.40;;;;;;;-141.26;100.00;62741.75;5167556;27;20226;-78
2023/08/28 02:20:54;;;;;;;1.60;1.50;;;;;;;-141.26;100.00;62741.75;5185431;27;20229;-78
2023/08/28 02:23:21;;;;;;;2.03;1.27;;;;;;;-141.26;100.00;62741.75;5185007;27;20225;-79
2023/08/28 02:25:49;;;;;;;1.97;1.40;;;;;;;-141.26;100.00;62741.75;5149922;27;20243;-79
2023/08/28 02:28:18;;;;;;;2.50;1.60;;;;;;;-141.26;100.00;62741.75;5146739;27;20216;-79
2023/08/28 02:30:47;;;;;;;1.07;1.07;;;;;;;-141.26;100.00;62741.75;5146646;27;20231;-79
2023/08/28 02:33:15;;;;;;;1.30;1.20;;;;;;;-141.26;100.00;62741.75;5146964;27;20231;-79
2023/08/28 02:35:43;;;;;;;1.33;1.23;;;;;;;-141.26;100.00;62741.75;5163213;27;20230;-79
2023/08/28 02:38:11;;;;;;;1.40;1.30;;;;;;;-141.26;100.00;62741.75;5167224;27;20223;-80
2023/08/28 02:40:38;;;;;;;1.93;1.60;;;;;;;-141.26;100.00;62741.75;5167439;27;20222;-80
2023/08/28 02:43:06;;;;;;;2.03;1.60;;;;;;;-141.26;100.00;62741.75;5167336;27;20214;-80
2023/08/28 02:45:35;;;;;;;2.23;1.67;;;;;;;-141.26;100.00;62741.75;5152006;27;20226;-80
2023/08/28 02:48:04;;;;;;;2.53;1.73;;;;;;;-141.26;100.00;62741.75;5155416;27;20219;-80
2023/08/28 02:50:31;;;;;;;1.50;1.40;;;;;;;-141.26;100.00;62741.75;5166955;27;20231;-75
2023/08/28 02:52:58;;;;;;;1.37;1.20;;;;;;;-141.26;100.00;62741.75;5167137;27;20222;-75
2023/08/28 02:55:25;;;;;;;2.53;1.30;;;;;;;-141.26;100.00;62741.75;5172032;27;20223;-75
2023/08/28 02:57:52;;;;;;;1.50;1.30;;;;;;;-141.26;100.00;62741.75;5146522;27;20220;-75
2023/08/28 03:00:19;;;;;;;1.23;1.23;;;;;;;-141.26;100.00;62741.75;5146423;27;20272;-75
2023/08/28 03:02:47;;;;;;;1.60;1.40;;;;;;;-141.26;100.00;62741.75;5146330;27;20227;-75
2023/08/28 03:05:15;;;;;;;1.50;1.40;;;;;;;-141.26;100.00;62741.75;5157952;27;20230;-75
2023/08/28 03:07:42;;;;;;;1.60;1.50;;;;;;;-141.26;100.00;62741.75;5185165;27;20238;-75
2023/08/28 03:10:10;;;;;;;1.87;1.40;;;;;;;-141.26;100.00;62741.75;5166189;27;20230;-76
2023/08/28 03:12:37;;;;;;;1.50;1.40;;;;;;;-141.26;100.00;62741.75;5167103;27;20216;-85
2023/08/28 03:15:05;;;;;;;1.67;1.53;;;;;;;-141.26;100.00;62741.75;5157552;27;20237;-80
2023/08/28 03:17:32;;;;;;;3.50;1.60;;;;;;;-141.26;100.00;62741.75;5146253;27;20228;-80
2023/08/28 03:19:59;;;;;;;3.63;1.67;;;;;;;-141.26;100.00;62741.75;5145933;27;20268;-80
2023/08/28 03:22:28;;;;;;;1.77;1.67;;;;;;;-141.26;100.00;62741.75;5146035;27;20222;-79
2023/08/28 03:24:55;;;;;;;1.47;1.37;;;;;;;-141.26;100.00;62741.75;5153348;27;20229;-80
2023/08/28 03:27:22;;;;;;;2.70;1.63;;;;;;;-141.26;100.00;62741.75;5166867;27;20233;-80
2023/08/28 03:29:49;;;;;;;1.77;1.47;;;;;;;-141.26;100.00;62741.75;5147940;27;20227;-80
2023/08/28 03:32:15;;;;;;;1.80;1.70;;;;;;;-141.26;100.00;62741.75;5149671;27;20211;-80
2023/08/28 03:34:42;;;;;;;1.50;1.40;;;;;;;-141.26;100.00;62741.75;5173866;27;20260;-85
2023/08/28 03:37:09;;;;;;;2.43;1.93;;;;;;;-141.26;100.00;62741.75;5170546;27;20221;-87
2023/08/28 03:39:38;;;;;;;1.83;1.73;;;;;;;-141.26;100.00;62741.75;5170116;27;20242;-87
2023/08/28 03:42:05;;;;;;;1.93;1.80;;;;;;;-141.26;100.00;62741.75;5187831;27;20222;-86
2023/08/28 03:44:32;;;;;;;5.17;2.00;;;;;;;-141.26;100.00;62741.75;5166269;27;20234;-80
2023/08/28 03:46:58;;;;;;;2.57;1.90;;;;;;;-141.26;100.00;62741.75;5149316;27;20215;-80
2023/08/28 03:49:26;;;;;;;2.10;1.90;;;;;;;-141.26;100.00;62741.75;5149190;27;20227;-84
2023/08/28 03:51:59;;;;;;;2.40;1.83;;;;;;;-141.26;100.00;62741.75;5149372;27;20215;-83
2023/08/28 03:54:28;;;;;;;3.10;2.17;;;;;;;-141.26;100.00;62741.75;5168200;27;20238;-76
2023/08/28 03:56:56;;;;;;;1.67;1.57;;;;;;;-141.26;100.00;62741.75;5149325;27;20264;-86
2023/08/28 03:59:23;;;;;;;2.77;2.17;;;;;;;-141.26;100.00;62741.75;5149311;27;20223;-86
2023/08/28 04:01:50;;;;;;;4.27;2.10;;;;;;;-141.26;100.00;62741.75;5149116;27;20271;-85
2023/08/28 04:04:17;;;;;;;2.10;2.00;;;;;;;-141.26;100.00;62741.75;5149816;27;20215;-86
2023/08/28 04:06:44;;;;;;;2.03;1.80;;;;;;;-141.26;100.00;62741.75;5169581;27;20232;-88
2023/08/28 04:09:11;;;;;;;2.43;1.93;;;;;;;-141.26;100.00;62741.75;5167084;27;20223;-87
2023/08/28 04:11:38;;;;;;;2.87;2.03;;;;;;;-141.26;100.00;62741.75;5163798;27;20226;-78
2023/08/28 04:14:06;;;;;;;3.13;1.97;;;;;;;-141.26;100.00;62741.75;5169820;27;20215;-79
2023/08/28 04:16:35;;;;;;;2.70;2.10;;;;;;;-141.26;100.00;62741.75;5149259;27;20227;-78
2023/08/28 04:19:02;;;;;;;2.50;2.30;;;;;;;-141.26;100.00;62741.75;5149017;27;20215;-82
2023/08/28 04:21:30;;;;;;;3.47;2.20;;;;;;;-141.26;100.00;62741.75;5148691;27;20222;-82
2023/08/28 04:23:58;;;;;;;3.00;2.63;;;;;;;-141.26;100.00;62741.75;5148817;27;20220;-82
2023/08/28 04:26:24;;;;;;;4.07;2.73;;;;;;;-141.26;100.00;62741.75;5166438;27;20227;-79
2023/08/28 04:28:52;;;;;;;4.10;3.20;;;;;;;-141.26;100.00;62741.75;5169462;27;20219;-80
2023/08/28 04:31:20;;;;;;;5.77;5.27;;;;;;;-141.26;100.00;62741.75;5169175;27;20230;-80
2023/08/28 04:33:47;;;;;;;2.63;2.40;;;;;;;-141.26;100.00;62741.75;5169595;27;20218;-81
2023/08/28 04:36:14;;;;;;;2.80;2.50;;;;;;;-141.26;100.00;62741.75;5152907;27;20219;-82
2023/08/28 04:38:42;;;;;;;2.60;2.40;;;;;;;-141.26;100.00;62741.75;5148563;27;20226;-82
2023/08/28 04:41:10;;;;;;;2.30;2.10;;;;;;;-141.26;100.00;62741.75;5158385;27;20222;-83
2023/08/28 04:43:37;;;;;;;2.13;1.93;;;;;;;-141.26;100.00;62741.75;5169221;27;20215;-83
2023/08/28 04:46:06;;;;;;;2.60;2.40;;;;;;;-141.26;100.00;62741.75;5154674;27;20224;-83
2023/08/28 04:48:34;;;;;;;2.20;2.10;;;;;;;-141.26;100.00;62741.75;5159971;27;20227;-75
2023/08/28 04:51:01;;;;;;;2.60;2.40;;;;;;;-141.26;100.00;62741.75;5180003;27;20229;-74
2023/08/28 04:53:28;;;;;;;2.77;2.50;;;;;;;-141.26;100.00;62741.75;5148614;27;20222;-73
2023/08/28 04:55:55;;;;;;;3.03;2.73;;;;;;;-141.26;100.00;62741.75;5161071;27;20214;-72
2023/08/28 04:58:23;;;;;;;3.60;3.00;;;;;;;-141.26;100.00;62741.75;5169172;27;20234;-77
2023/08/28 05:00:51;;;;;;;3.27;2.97;;;;;;;-141.26;100.00;62741.75;5168584;27;20240;-77
2023/08/28 05:03:18;;;;;;;3.80;3.40;;;;;;;-141.26;100.00;62741.75;5169113;27;20226;-76
2023/08/28 05:05:46;;;;;;;6.47;3.20;;;;;;;-141.26;100.00;62741.75;5157148;27;20226;-77
2023/08/28 05:08:13;;;;;;;3.77;3.47;;;;;;;-141.26;100.00;62741.75;5157415;27;20227;-76
2023/08/28 05:10:40;;;;;;;3.90;3.27;;;;;;;-141.26;100.00;62741.75;5168837;27;20227;-76
2023/08/28 05:13:07;;;;;;;5.57;3.70;;;;;;;-141.26;100.00;62741.75;5168293;27;20219;-76
2023/08/28 05:15:34;;;;;;;4.20;3.43;;;;;;;-141.26;100.00;62741.75;5158956;27;20276;-76
2023/08/28 05:18:03;;;;;;;3.73;3.43;;;;;;;-141.26;100.00;62741.75;5147927;27;20220;-76
2023/08/28 05:20:30;;;;;;;3.80;3.50;;;;;;;-141.26;100.00;62741.75;5147750;27;20306;-76
2023/08/28 05:22:59;;;;;;;4.53;4.00;;;;;;;-141.26;100.00;62741.75;5147580;27;20232;-76
2023/08/28 05:25:26;;;;;;;4.10;3.70;;;;;;;-141.26;100.00;62741.75;5155502;27;20229;-76
2023/08/28 05:27:53;;;;;;;4.00;3.70;;;;;;;-141.26;100.00;62741.75;5168480;27;20367;-76
2023/08/28 05:30:20;;;;;;;4.43;4.03;;;;;;;-141.26;100.00;62741.75;5186112;27;20232;-81
2023/08/28 05:32:48;;;;;;;4.13;3.73;;;;;;;-141.26;100.00;62741.75;5167932;27;20222;-75
2023/08/28 05:35:15;;;;;;;4.67;3.83;;;;;;;-141.26;100.00;62741.75;5161645;27;20260;-76
2023/08/28 05:37:41;;;;;;;4.60;4.20;;;;;;;-141.26;100.00;62741.75;5149024;27;20275;-74
2023/08/28 05:40:15;;;;;;;5.00;4.27;;;;;;;-141.26;100.00;62741.75;5158497;27;20212;-78
2023/08/28 05:42:42;;;;;;;4.97;4.43;;;;;;;-141.26;100.00;62741.75;5149568;27;20230;-75
2023/08/28 05:45:10;;;;;;;5.07;4.67;;;;;;;-141.26;100.00;62741.75;5157275;27;20220;-74
2023/08/28 05:47:37;;;;;;;4.07;3.70;;;;;;;-141.26;100.00;62741.75;5148081;27;20273;-74
2023/08/28 05:50:04;;;;;;;4.83;4.43;;;;;;;-141.26;100.00;62741.75;5147241;27;20276;-74
2023/08/28 05:52:31;;;;;;;5.83;4.27;;;;;;;-141.26;100.00;62741.75;5150568;27;20242;-74
2023/08/28 05:54:58;;;;;;;5.10;4.50;;;;;;;-141.26;100.00;62741.75;5168113;27;20218;-75
2023/08/28 05:57:26;;;;;;;4.83;4.43;;;;;;;-141.26;100.00;62741.75;5166173;27;20254;-75
2023/08/28 05:59:53;;;;;;;4.90;4.40;;;;;;;-141.26;100.00;62741.75;5166166;27;20223;-75
2023/08/28 06:02:20;;;;;;;5.70;5.20;;;;;;;-141.26;100.00;62741.75;5150556;27;20276;-75
2023/08/28 06:04:47;;;;;;;5.40;4.83;;;;;;;-141.26;100.00;62741.75;5147159;27;20230;-75
2023/08/28 06:07:14;;;;;;;5.40;4.90;;;;;;;-141.26;100.00;62741.75;5154281;27;20237;-75
2023/08/28 06:09:42;;;;;;;5.33;4.83;;;;;;;-141.26;100.00;62741.75;5166256;27;20215;-75
2023/08/28 06:12:09;;;;;;;7.87;4.50;;;;;;;-141.26;100.00;62741.75;5167310;27;20226;-75
2023/08/28 06:14:38;;;;;;;5.33;4.70;;;;;;;-141.26;100.00;62741.75;5147929;27;20287;-75
2023/08/28 06:17:05;;;;;;;4.83;4.43;;;;;;;-141.26;100.00;62741.75;5158295;27;20222;-85
2023/08/28 06:19:32;;;;;;;4.87;4.47;;;;;;;-141.26;100.00;62741.75;5157164;27;20226;-76
2023/08/28 06:21:59;;;;;;;6.37;4.20;;;;;;;-141.26;100.00;62741.75;5167272;27;20286;-74
2023/08/28 06:24:26;;;;;;;4.50;4.10;;;;;;;-141.26;100.00;62741.75;5167376;27;20225;-74
2023/08/28 06:26:53;;;;;;;4.27;3.83;;;;;;;-141.26;100.00;62741.75;5165533;27;20233;-74
2023/08/28 06:29:20;;;;;;;3.97;3.53;;;;;;;-141.26;100.00;62741.75;5165081;27;20219;-74
2023/08/28 06:31:48;;;;;;;3.03;2.83;;;;;;;-141.26;100.00;62741.75;5165879;27;20230;-74
2023/08/28 06:34:15;;;;;;;3.23;3.03;;;;;;;-141.26;100.00;62741.75;5147766;27;20218;-74
2023/08/28 06:36:42;;;;;;;3.00;2.80;;;;;;;-141.26;100.00;62741.75;5147629;27;20292;-74
2023/08/28 06:39:09;;;;;;;4.70;2.90;;;;;;;14.98;100.00;95705.22;5097423;27;101917;-74
2023/08/28 06:41:36;;;;;;;3.10;2.83;;;;;;;15.09;100.00;95717.34;5062595;27;105473;-74
2023/08/28 06:44:06;;;;;;;3.40;3.10;;;;;;;14.79;100.00;95680.34;5068578;27;101954;-75
2023/08/28 06:46:33;;;;;;;3.23;2.93;;;;;;;14.61;100.00;95649.09;5058374;27;105477;-75
2023/08/28 06:49:01;;;;;;;2.97;2.67;;;;;;;14.69;100.00;95664.47;5056562;27;105810;-75
2023/08/28 06:51:28;;;;;;;3.20;2.90;;;;;;;14.83;100.00;95650.03;5073126;27;104108;-76
2023/08/28 06:53:55;;;;;;;3.10;2.90;;;;;;;14.35;100.00;95638.00;5072902;27;105317;-79
2023/08/28 06:56:21;;;;;;;4.40;3.17;;;;;;;14.36;100.00;95628.09;5073105;27;101991;-76
2023/08/28 06:58:48;;;;;;;4.93;3.63;;;;;;;15.44;100.00;95622.94;5091837;27;102688;-76
2023/08/28 07:01:15;;;;;;;4.33;3.93;;;;;;;15.55;100.00;95625.13;5070805;27;105570;-76
2023/08/28 07:03:42;;;;;;;3.73;3.37;;;;;;;14.92;100.00;95616.13;5070947;27;101837;-76
2023/08/28 07:06:11;;;;;;;3.53;3.23;;;;;;;14.89;100.00;95597.97;5052748;27;105691;-76
2023/08/28 07:08:38;;;;;;;3.47;3.17;;;;;;;15.28;100.00;95592.97;5048502;27;105561;-75
2023/08/28 07:11:05;;;;;;;5.13;3.70;;;;;;;15.78;100.00;95577.69;5053589;27;102059;-75
2023/08/28 07:13:31;;;;;;;4.13;3.80;;;;;;;15.76;100.00;95580.69;5063010;27;105073;-75
2023/08/28 07:16:01;;;;;;;3.60;3.30;;;;;;;15.94;100.00;95589.69;5059858;27;101842;-75
2023/08/28 07:18:28;;;;;;;4.60;3.50;;;;;;;15.26;100.00;95591.66;5049997;27;105506;-75
2023/08/28 07:20:55;;;;;;;3.23;3.03;;;;;;;15.08;100.00;95589.88;5059037;27;105436;-75
2023/08/28 07:23:25;;;;;;;2.70;2.50;;;;;;;14.90;100.00;95582.72;5070615;27;102074;-75
2023/08/28 07:25:52;;;;;;;3.10;2.90;;;;;;;14.71;100.00;95584.69;5061326;27;102713;-75
2023/08/28 07:28:19;;;;;;;3.27;3.03;;;;;;;15.33;100.00;95571.47;5070345;27;102875;-75
2023/08/28 07:30:46;;;;;;;2.97;2.77;;;;;;;14.75;100.00;95548.19;5068635;27;101925;-75
2023/08/28 07:33:13;;;;;;;3.10;2.80;;;;;;;15.11;100.00;95541.06;5071935;27;105254;-75
2023/08/28 07:35:43;;;;;;;3.87;3.03;;;;;;;15.92;100.00;95535.56;5069799;27;101991;-75
2023/08/28 07:38:10;;;;;;;2.43;2.30;;;;;;;15.59;100.00;95518.88;5058610;27;102622;-75
2023/08/28 07:40:39;;;;;;;3.00;2.70;;;;;;;15.45;100.00;95522.69;5068352;27;105734;-75
2023/08/28 07:43:06;;;;;;;8.77;3.30;;;;;;;15.12;100.00;95515.88;5057547;27;102069;-64
2023/08/28 07:45:32;;;;;;;2.63;2.40;;;;;;;14.82;100.00;95508.47;5053730;27;105681;-64
2023/08/28 07:48:00;;;;;;;2.30;2.00;;;;;;;14.61;100.00;95518.75;5068581;27;105280;-64
2023/08/28 07:50:30;;;;;;;1.93;1.80;;;;;;;14.52;100.00;95525.09;5066894;27;102167;-67
2023/08/28 07:52:57;;;;;;;1.87;1.77;;;;;;;14.40;100.00;95520.22;5069030;27;105211;-68
2023/08/28 07:55:24;;;;;;;2.10;1.90;;;;;;;14.37;100.00;95515.47;5071602;27;105583;-68
2023/08/28 07:57:53;;;;;;;2.07;1.87;;;;;;;14.58;100.00;95502.50;5067954;27;105848;-68
2023/08/28 08:00:21;;;;;;;2.00;1.90;;;;;;;14.53;100.00;95508.75;5067495;27;105686;-68
2023/08/28 08:02:50;;;;;;;1.83;1.73;;;;;;;14.83;100.00;95523.44;5067810;27;101880;-68
2023/08/28 08:05:17;;;;;;;2.10;2.00;;;;;;;14.80;100.00;95537.41;5068225;27;105351;-68
2023/08/28 08:07:44;;;;;;;1.90;1.80;;;;;;;14.98;100.00;95550.69;5080257;27;102918;-68
2023/08/28 08:10:12;;;;;;;4.23;2.20;;;;;;;14.72;100.00;95572.91;5071354;27;101944;-68
2023/08/28 08:12:39;;;;;;;2.00;1.67;;;;;;;14.66;100.00;95623.03;5071222;27;105217;-68
2023/08/28 08:15:09;;;;;;;2.10;1.90;;;;;;;14.38;100.00;95658.03;5088872;27;105811;-68
2023/08/28 08:17:37;;;;;;;1.73;1.63;;;;;;;14.01;100.00;95690.09;5077897;27;101993;-68
2023/08/28 08:20:09;;;;;;;1.70;1.60;;;;;;;13.79;100.00;95705.88;5092853;27;102926;-68
2023/08/28 08:22:37;;;;;;;2.40;2.20;;;;;;;13.93;100.00;95730.81;5093493;27;101751;-68
2023/08/28 08:25:06;;;;;;;2.63;2.43;;;;;;;14.08;100.00;95738.66;5074563;27;105403;-68
2023/08/28 08:27:33;;;;;;;2.43;2.20;;;;;;;14.38;100.00;95744.41;5092593;27;103027;-68
2023/08/28 08:30:00;;;;;;;2.60;2.40;;;;;;;14.67;100.00;95760.31;5074438;27;102104;-68
2023/08/28 08:32:28;;;;;;;4.43;2.47;;;;;;;14.74;100.00;95766.88;5074513;27;105749;-68
2023/08/28 08:34:59;;;;;;;2.30;2.10;;;;;;;14.65;100.00;95790.03;5090957;27;105597;-68
2023/08/28 08:37:26;;;;;;;2.33;2.13;;;;;;;14.72;100.00;95798.47;5096660;27;101730;-68
2023/08/28 08:39:53;;;;;;;3.07;2.73;;;;;;;14.52;100.00;95808.69;5091097;27;105851;-68
2023/08/28 08:42:21;;;;;;;2.67;2.47;;;;;;;14.32;100.00;95809.75;5074237;27;102238;-68
2023/08/28 08:44:48;;;;;;;3.17;2.53;;;;;;;14.43;100.00;95805.06;5074244;27;105897;-68
2023/08/28 08:47:16;;;;;;;2.63;2.43;;;;;;;14.19;100.00;95799.78;5073463;27;105841;-68
2023/08/28 08:49:52;;;;;;;2.57;2.37;;;;;;;14.36;100.00;95793.91;5074228;27;102520;-68
2023/08/28 08:52:21;;;;;;;3.37;1.93;;;;;;;14.63;100.00;95778.03;5092952;27;103094;-68
2023/08/28 08:54:54;;;;;;;2.23;2.13;;;;;;;14.35;100.00;95749.53;5073200;27;105775;-68
2023/08/28 08:57:28;;;;;;;3.10;2.43;;;;;;;14.13;100.00;95725.22;5092519;27;102102;-68
2023/08/28 08:59:56;;;;;;;2.73;2.40;;;;;;;14.04;100.00;95686.84;5076997;27;105347;-68
2023/08/28 09:02:23;;;;;;;3.97;2.33;;;;;;;14.06;100.00;95657.94;5074006;27;102057;-68
2023/08/28 09:04:51;;;;;;;1.80;1.70;;;;;;;13.93;100.00;95626.56;5092601;27;102854;-68
2023/08/28 09:07:19;;;;;;;1.80;1.70;;;;;;;13.90;100.00;95606.56;5069510;27;105518;-68
2023/08/28 09:09:47;;;;;;;1.53;1.43;;;;;;;13.96;100.00;95589.38;5070543;27;101962;-68
2023/08/28 09:12:16;;;;;;;1.53;1.43;;;;;;;13.88;100.00;95574.00;5070583;27;105538;-68
2023/08/28 09:14:43;;;;;;;1.00;1.00;;;;;;;13.93;100.00;95565.09;5069947;27;105881;-68
2023/08/28 09:17:10;;;;;;;1.20;1.20;;;;;;;13.92;100.00;95555.50;5072079;27;101883;-68
2023/08/28 09:19:37;;;;;;;1.20;1.20;;;;;;;13.99;100.00;95575.44;5070441;27;105873;-66
2023/08/28 09:22:05;;;;;;;1.07;1.07;;;;;;;14.14;100.00;95598.47;5073253;27;106049;-66
2023/08/28 09:24:32;;;;;;;1.20;1.20;;;;;;;14.38;100.00;95599.19;5070476;27;105936;-65
2023/08/28 09:27:02;;;;;;;1.13;1.13;;;;;;;14.68;100.00;95590.63;5069692;27;104382;-65
2023/08/28 09:29:30;;;;;;;1.20;1.10;;;;;;;14.68;100.00;95574.56;5070031;27;101838;-65
2023/08/28 09:32:03;;;;;;;0.90;0.90;;;;;;;14.80;100.00;95569.53;5070115;27;105896;-65
2023/08/28 09:34:38;;;;;;;1.00;1.00;;;;;;;14.87;100.00;95564.59;5071297;27;102864;-65
2023/08/28 09:37:09;;;;;;;0.80;0.80;;;;;;;14.95;100.00;95566.56;5071042;27;102190;-65
2023/08/28 09:39:38;;;;;;;0.83;0.83;;;;;;;14.94;100.00;95564.97;5070909;27;105390;-65
2023/08/28 09:42:06;;;;;;;0.80;0.80;;;;;;;14.90;100.00;95538.03;5070234;27;105876;-65
2023/08/28 09:44:34;;;;;;;0.80;0.80;;;;;;;14.88;100.00;95518.00;5074254;27;102373;-65
2023/08/28 09:47:02;;;;;;;0.80;0.80;;;;;;;15.06;100.00;95503.69;5070580;27;105139;-65
2023/08/28 09:49:29;;;;;;;1.07;0.83;;;;;;;15.02;100.00;95521.44;5072343;27;101792;-65
2023/08/28 09:51:58;;;;;;;0.90;0.90;;;;;;;15.20;100.00;95531.25;5070768;27;105230;-65
2023/08/28 09:54:27;;;;;;;0.90;0.90;;;;;;;15.12;100.00;95550.69;5070132;27;105680;-65
2023/08/28 09:56:54;;;;;;;0.80;0.80;;;;;;;15.23;100.00;95552.06;5071803;27;101979;-65
2023/08/28 09:59:21;;;;;;;0.80;0.80;;;;;;;15.35;100.00;95555.06;5070486;27;105449;-65
2023/08/28 10:01:48;;;;;;;1.07;1.07;;;;;;;15.50;100.00;95557.41;5071639;27;103326;-65
2023/08/28 10:04:20;;;;;;;0.77;0.77;;;;;;;15.73;100.00;95532.25;5070557;27;101973;-65
2023/08/28 10:06:50;;;;;;;0.80;0.80;;;;;;;15.71;100.00;95526.41;5073187;27;105187;-65
2023/08/28 10:09:21;;;;;;;0.90;0.90;;;;;;;15.63;100.00;95537.81;5069827;27;101835;-65
2023/08/28 10:11:51;;;;;;;0.70;0.70;;;;;;;15.41;100.00;95527.06;5069644;27;105621;-65
2023/08/28 10:14:20;;;;;;;0.80;0.80;;;;;;;15.44;100.00;95526.47;5070289;27;102852;-65
2023/08/28 10:16:53;;;;;;;0.90;0.90;;;;;;;15.37;100.00;95520.75;5070976;27;101841;-65
2023/08/28 10:19:26;;;;;;;0.93;0.90;;;;;;;15.49;100.00;95526.38;5069570;27;105595;-65
2023/08/28 10:21:54;;;;;;;0.60;0.60;;;;;;;15.17;100.00;95521.13;5070258;27;102891;-65
2023/08/28 10:24:22;;;;;;;0.83;0.80;;;;;;;15.27;100.00;95534.31;5069377;27;102320;-65
2023/08/28 10:26:52;;;;;;;0.87;0.80;;;;;;;15.47;100.00;95525.88;5069458;27;105200;-65
2023/08/28 10:29:19;;;;;;;0.73;0.73;;;;;;;15.33;100.00;95517.88;5072329;27;106019;-65
2023/08/28 10:31:47;;;;;;;0.60;0.60;;;;;;;15.04;100.00;95528.09;5069446;27;105605;-65
2023/08/28 10:34:16;;;;;;;0.70;0.70;;;;;;;15.01;100.00;95523.34;5068687;27;105458;-65
2023/08/28 10:36:46;;;;;;;0.80;0.80;;;;;;;15.05;100.00;95523.53;5069257;27;101971;-65
2023/08/28 10:39:13;;;;;;;0.80;0.80;;;;;;;15.09;100.00;95524.53;5070139;27;102932;-65
2023/08/28 10:41:41;;;;;;;0.80;0.80;;;;;;;15.07;100.00;95521.34;5068399;27;105564;-65
2023/08/28 10:44:10;;;;;;;0.80;0.80;;;;;;;15.19;100.00;95513.59;5069222;27;102003;-65
2023/08/28 10:46:39;;;;;;;0.90;0.90;;;;;;;15.26;100.00;95514.00;5070605;27;102788;-65
2023/08/28 10:49:07;;;;;;;1.00;1.00;;;;;;;15.28;100.00;95493.84;5071870;27;105666;-65
2023/08/28 10:51:36;;;;;;;1.00;1.00;;;;;;;15.28;100.00;95471.63;5069139;27;105537;-65
2023/08/28 10:54:07;;;;;;;0.73;0.73;;;;;;;15.22;100.00;95460.25;5068437;27;105144;-65
2023/08/28 10:56:35;;;;;;;1.60;0.97;;;;;;;15.09;100.00;95476.34;5070022;27;102219;-65
2023/08/28 10:59:25;;;;;;;0.93;0.93;;;;;;;15.07;100.00;95491.88;5068951;27;105858;-65
2023/08/28 11:01:53;;;;;;;0.80;0.80;;;;;;;15.10;100.00;95500.09;5068404;27;105437;-65
2023/08/28 11:04:20;;;;;;;0.90;0.90;;;;;;;15.00;100.00;95502.22;5068996;27;101946;-65
2023/08/28 11:06:48;;;;;;;1.10;1.10;;;;;;;14.96;100.00;95503.91;5068465;27;105425;-65
2023/08/28 11:09:34;;;;;;;0.90;0.90;;;;;;;15.15;100.00;95493.88;5068360;27;105479;-65
2023/08/28 11:12:30;;;;;;;1.07;1.07;;;;;;;15.09;100.00;95493.16;5072175;27;102053;-65
2023/08/28 11:15:00;;;;;;;1.07;1.07;;;;;;;15.15;100.00;95499.22;5069673;27;102012;-65
2023/08/28 11:17:27;;;;;;;1.20;1.20;;;;;;;15.08;100.00;95501.50;5070040;27;101788;-65